Weather at Praia Verde Airstrip

Public forecast

Using degrees Celsius for public forecast. Weather courtesy of forecast.io.

Closest aviation weather report (METAR) to Praia Verde Airstrip

Closest report is Faro Airport, 26.0 nm (48.1 km) WSW.

2024/06/16 12:30 (retrieved 37 minutes ago)

LPFR 161230Z 22010KT CAVOK 22/14 Q1015

Closest aviation forecast (TAF) to Praia Verde Airstrip

Closest forecast is Faro Airport, 26.0 nm (48.1 km) WSW.

2024/06/16 12:18 (retrieved 49 minutes ago)

TAF LPFR 161100Z 1612/1712 19012KT CAVOK BECMG 1614/1616 24015KT BECMG 1618/1620 32012KT BECMG 1622/1624 33007KT BECMG 1702/1704 VRB02KT BECMG 1710/1712 23012KT